Terminal Aerodrome Forecast
Issued by NWS Wakefield, VA

Home | Current Version | Previous Version | Text Only | Print | Product List | Glossary On
Versions: 1 2 3 4 5 6 7 8 9 10 11 12 13 14 15
000
FTUS41 KAKQ 271120
TAFORF
TAF
KORF 271120Z 2712/2812 23006KT P6SM BKN120
     FM271400 34006KT P6SM BKN080
     FM271600 04005KT P6SM BKN060
     FM272300 15004KT P6SM SCT150=

USA.gov is the U.S. government's official web portal to all federal, state and local government web resources and services.